sensor_id;sensor_type;location;lat;lon;timestamp;temperature;humidity
67777;DHT22;54576;52.020;5.536;2023-01-16T00:00:53;5.70;99.90
67777;DHT22;54576;52.020;5.536;2023-01-16T00:03:21;5.70;99.90
67777;DHT22;54576;52.020;5.536;2023-01-16T00:05:46;5.70;99.90
67777;DHT22;54576;52.020;5.536;2023-01-16T00:08:13;5.70;99.90
67777;DHT22;54576;52.020;5.536;2023-01-16T00:10:43;5.80;99.90
67777;DHT22;54576;52.020;5.536;2023-01-16T00:13:11;5.70;99.90
67777;DHT22;54576;52.020;5.536;2023-01-16T00:15:36;5.70;99.90
67777;DHT22;54576;52.020;5.536;2023-01-16T00:18:02;5.70;99.90
67777;DHT22;54576;52.020;5.536;2023-01-16T00:20:27;5.70;99.90
67777;DHT22;54576;52.020;5.536;2023-01-16T00:22:53;5.70;99.90
67777;DHT22;54576;52.020;5.536;2023-01-16T00:25:19;5.70;99.90
67777;DHT22;54576;52.020;5.536;2023-01-16T00:27:45;5.70;99.90
67777;DHT22;54576;52.020;5.536;2023-01-16T00:30:11;5.70;99.90
67777;DHT22;54576;52.020;5.536;2023-01-16T00:32:37;5.70;99.90
67777;DHT22;54576;52.020;5.536;2023-01-16T00:35:03;5.70;99.90
67777;DHT22;54576;52.020;5.536;2023-01-16T00:37:29;5.70;99.90
67777;DHT22;54576;52.020;5.536;2023-01-16T00:39:55;5.70;99.90
67777;DHT22;54576;52.020;5.536;2023-01-16T00:42:20;5.70;99.90
67777;DHT22;54576;52.020;5.536;2023-01-16T00:44:46;5.70;99.90
67777;DHT22;54576;52.020;5.536;2023-01-16T00:47:14;5.70;99.90
67777;DHT22;54576;52.020;5.536;2023-01-16T00:49:43;5.70;99.90
67777;DHT22;54576;52.020;5.536;2023-01-16T00:52:08;5.70;99.90
67777;DHT22;54576;52.020;5.536;2023-01-16T00:54:34;5.70;99.90
67777;DHT22;54576;52.020;5.536;2023-01-16T00:56:59;5.70;99.90
67777;DHT22;54576;52.020;5.536;2023-01-16T00:59:25;5.70;99.90
67777;DHT22;54576;52.020;5.536;2023-01-16T01:01:51;5.70;99.90
67777;DHT22;54576;52.020;5.536;2023-01-16T01:04:16;5.70;99.90
67777;DHT22;54576;52.020;5.536;2023-01-16T01:06:42;5.70;99.90
67777;DHT22;54576;52.020;5.536;2023-01-16T01:09:08;5.70;99.90
67777;DHT22;54576;52.020;5.536;2023-01-16T01:11:33;5.70;99.90
67777;DHT22;54576;52.020;5.536;2023-01-16T01:13:59;5.70;99.90
67777;DHT22;54576;52.020;5.536;2023-01-16T01:16:25;5.70;99.90
67777;DHT22;54576;52.020;5.536;2023-01-16T01:18:50;5.60;99.90
67777;DHT22;54576;52.020;5.536;2023-01-16T01:21:16;5.60;99.90
67777;DHT22;54576;52.020;5.536;2023-01-16T01:23:42;5.60;99.90
67777;DHT22;54576;52.020;5.536;2023-01-16T01:26:14;5.60;99.90
67777;DHT22;54576;52.020;5.536;2023-01-16T01:28:41;5.50;99.90
67777;DHT22;54576;52.020;5.536;2023-01-16T01:31:11;5.60;99.90
67777;DHT22;54576;52.020;5.536;2023-01-16T01:33:37;5.60;99.90
67777;DHT22;54576;52.020;5.536;2023-01-16T01:36:04;5.60;99.90
67777;DHT22;54576;52.020;5.536;2023-01-16T01:38:30;5.60;99.90
67777;DHT22;54576;52.020;5.536;2023-01-16T01:40:56;5.60;99.90
67777;DHT22;54576;52.020;5.536;2023-01-16T01:43:38;5.60;99.90
67777;DHT22;54576;52.020;5.536;2023-01-16T01:46:03;5.50;99.90
67777;DHT22;54576;52.020;5.536;2023-01-16T01:48:36;5.50;99.90
67777;DHT22;54576;52.020;5.536;2023-01-16T01:51:17;5.50;99.90
67777;DHT22;54576;52.020;5.536;2023-01-16T01:53:59;5.50;99.90
67777;DHT22;54576;52.020;5.536;2023-01-16T01:57:02;5.50;99.90
67777;DHT22;54576;52.020;5.536;2023-01-16T01:59:40;5.50;99.90
67777;DHT22;54576;52.020;5.536;2023-01-16T02:02:11;5.50;99.90
67777;DHT22;54576;52.020;5.536;2023-01-16T02:04:41;5.50;99.90
67777;DHT22;54576;52.020;5.536;2023-01-16T02:07:11;5.40;99.90
67777;DHT22;54576;52.020;5.536;2023-01-16T02:09:41;5.40;99.90
67777;DHT22;54576;52.020;5.536;2023-01-16T02:12:14;5.40;99.90
67777;DHT22;54576;52.020;5.536;2023-01-16T02:14:43;5.40;99.90
67777;DHT22;54576;52.020;5.536;2023-01-16T02:17:16;5.30;99.90
67777;DHT22;54576;52.020;5.536;2023-01-16T02:23:11;5.20;99.90
67777;DHT22;54576;52.020;5.536;2023-01-16T02:31:50;5.10;99.90
67777;DHT22;54576;52.020;5.536;2023-01-16T02:40:34;5.10;99.90
67777;DHT22;54576;52.020;5.536;2023-01-16T02:46:30;5.00;99.90
67777;DHT22;54576;52.020;5.536;2023-01-16T02:49:20;5.00;99.90
67777;DHT22;54576;52.020;5.536;2023-01-16T02:51:57;5.00;99.90
67777;DHT22;54576;52.020;5.536;2023-01-16T02:54:45;4.80;99.90
67777;DHT22;54576;52.020;5.536;2023-01-16T02:57:16;4.80;99.90
67777;DHT22;54576;52.020;5.536;2023-01-16T02:59:43;4.70;99.90
67777;DHT22;54576;52.020;5.536;2023-01-16T03:02:09;4.70;99.90
67777;DHT22;54576;52.020;5.536;2023-01-16T03:07:56;4.70;99.90
67777;DHT22;54576;52.020;5.536;2023-01-16T03:16:30;4.60;99.90
67777;DHT22;54576;52.020;5.536;2023-01-16T03:19:17;4.50;99.90
67777;DHT22;54576;52.020;5.536;2023-01-16T03:21:52;4.50;99.90
67777;DHT22;54576;52.020;5.536;2023-01-16T03:24:55;4.40;99.90
67777;DHT22;54576;52.020;5.536;2023-01-16T03:27:57;4.40;99.90
67777;DHT22;54576;52.020;5.536;2023-01-16T03:30:42;4.30;99.90
67777;DHT22;54576;52.020;5.536;2023-01-16T03:38:36;4.20;99.90
67777;DHT22;54576;52.020;5.536;2023-01-16T03:41:05;4.20;99.90
67777;DHT22;54576;52.020;5.536;2023-01-16T03:43:37;4.20;99.90
67777;DHT22;54576;52.020;5.536;2023-01-16T03:49:03;4.10;99.90
67777;DHT22;54576;52.020;5.536;2023-01-16T03:51:38;4.10;99.90
67777;DHT22;54576;52.020;5.536;2023-01-16T03:59:44;4.10;99.90
67777;DHT22;54576;52.020;5.536;2023-01-16T04:02:18;4.10;99.90
67777;DHT22;54576;52.020;5.536;2023-01-16T04:04:47;4.10;99.90
67777;DHT22;54576;52.020;5.536;2023-01-16T04:07:38;4.10;99.90
67777;DHT22;54576;52.020;5.536;2023-01-16T04:10:11;4.10;99.90
67777;DHT22;54576;52.020;5.536;2023-01-16T04:12:43;4.10;99.90
67777;DHT22;54576;52.020;5.536;2023-01-16T04:15:16;4.10;99.90
67777;DHT22;54576;52.020;5.536;2023-01-16T04:17:42;4.10;99.90
67777;DHT22;54576;52.020;5.536;2023-01-16T04:20:09;4.10;99.90
67777;DHT22;54576;52.020;5.536;2023-01-16T04:22:35;4.20;99.90
67777;DHT22;54576;52.020;5.536;2023-01-16T04:25:03;4.20;99.90
67777;DHT22;54576;52.020;5.536;2023-01-16T04:27:32;4.20;99.90
67777;DHT22;54576;52.020;5.536;2023-01-16T04:29:57;4.20;99.90
67777;DHT22;54576;52.020;5.536;2023-01-16T04:32:23;4.20;99.90
67777;DHT22;54576;52.020;5.536;2023-01-16T04:34:49;4.30;99.90
67777;DHT22;54576;52.020;5.536;2023-01-16T04:37:15;4.30;99.90
67777;DHT22;54576;52.020;5.536;2023-01-16T04:39:41;4.30;99.90
67777;DHT22;54576;52.020;5.536;2023-01-16T04:42:08;4.30;99.90
67777;DHT22;54576;52.020;5.536;2023-01-16T04:44:34;4.20;99.90
67777;DHT22;54576;52.020;5.536;2023-01-16T04:46:59;4.20;99.90
67777;DHT22;54576;52.020;5.536;2023-01-16T04:49:28;4.20;99.90
67777;DHT22;54576;52.020;5.536;2023-01-16T04:51:54;4.20;99.90
67777;DHT22;54576;52.020;5.536;2023-01-16T04:54:24;4.20;99.90
67777;DHT22;54576;52.020;5.536;2023-01-16T04:56:50;4.20;99.90
67777;DHT22;54576;52.020;5.536;2023-01-16T04:59:16;4.20;99.90
67777;DHT22;54576;52.020;5.536;2023-01-16T05:01:41;4.10;99.90
67777;DHT22;54576;52.020;5.536;2023-01-16T05:04:08;4.10;99.90
67777;DHT22;54576;52.020;5.536;2023-01-16T05:06:35;4.10;99.90
67777;DHT22;54576;52.020;5.536;2023-01-16T05:09:03;4.10;99.90
67777;DHT22;54576;52.020;5.536;2023-01-16T05:11:29;4.10;99.90
67777;DHT22;54576;52.020;5.536;2023-01-16T05:13:55;4.10;99.90
67777;DHT22;54576;52.020;5.536;2023-01-16T05:16:20;4.10;99.90
67777;DHT22;54576;52.020;5.536;2023-01-16T05:18:46;4.10;99.90
67777;DHT22;54576;52.020;5.536;2023-01-16T05:21:12;4.10;99.90
67777;DHT22;54576;52.020;5.536;2023-01-16T05:23:37;4.10;99.90
67777;DHT22;54576;52.020;5.536;2023-01-16T05:26:04;4.10;99.90
67777;DHT22;54576;52.020;5.536;2023-01-16T05:28:30;4.10;99.90
67777;DHT22;54576;52.020;5.536;2023-01-16T05:30:58;4.10;99.90
67777;DHT22;54576;52.020;5.536;2023-01-16T05:33:26;4.10;99.90
67777;DHT22;54576;52.020;5.536;2023-01-16T05:35:52;4.20;99.90
67777;DHT22;54576;52.020;5.536;2023-01-16T05:38:19;4.20;99.90
67777;DHT22;54576;52.020;5.536;2023-01-16T05:40:45;4.20;99.90
67777;DHT22;54576;52.020;5.536;2023-01-16T05:43:14;4.30;99.90
67777;DHT22;54576;52.020;5.536;2023-01-16T05:45:40;4.30;99.90
67777;DHT22;54576;52.020;5.536;2023-01-16T05:48:06;4.30;99.90
67777;DHT22;54576;52.020;5.536;2023-01-16T05:50:32;4.40;99.90
67777;DHT22;54576;52.020;5.536;2023-01-16T05:52:57;4.40;99.90
67777;DHT22;54576;52.020;5.536;2023-01-16T05:55:23;4.50;99.90
67777;DHT22;54576;52.020;5.536;2023-01-16T05:57:48;4.50;99.90
67777;DHT22;54576;52.020;5.536;2023-01-16T06:00:15;4.50;99.90
67777;DHT22;54576;52.020;5.536;2023-01-16T06:02:41;4.60;99.90
67777;DHT22;54576;52.020;5.536;2023-01-16T06:05:07;4.60;99.90
67777;DHT22;54576;52.020;5.536;2023-01-16T06:07:35;4.60;99.90
67777;DHT22;54576;52.020;5.536;2023-01-16T06:10:01;4.60;99.90
67777;DHT22;54576;52.020;5.536;2023-01-16T06:12:26;4.60;99.90
67777;DHT22;54576;52.020;5.536;2023-01-16T06:14:52;4.60;99.90
67777;DHT22;54576;52.020;5.536;2023-01-16T06:17:17;4.60;99.90
67777;DHT22;54576;52.020;5.536;2023-01-16T06:19:45;4.60;99.90
67777;DHT22;54576;52.020;5.536;2023-01-16T06:22:14;4.70;99.90
67777;DHT22;54576;52.020;5.536;2023-01-16T06:24:40;4.70;99.90
67777;DHT22;54576;52.020;5.536;2023-01-16T06:27:05;4.70;99.90
67777;DHT22;54576;52.020;5.536;2023-01-16T06:29:31;4.70;99.90
67777;DHT22;54576;52.020;5.536;2023-01-16T06:31:56;4.70;99.90
67777;DHT22;54576;52.020;5.536;2023-01-16T06:34:22;4.80;99.90
67777;DHT22;54576;52.020;5.536;2023-01-16T06:36:48;4.80;99.90
67777;DHT22;54576;52.020;5.536;2023-01-16T06:39:14;4.80;99.90
67777;DHT22;54576;52.020;5.536;2023-01-16T06:41:40;4.80;99.90
67777;DHT22;54576;52.020;5.536;2023-01-16T06:44:06;4.80;99.90
67777;DHT22;54576;52.020;5.536;2023-01-16T06:46:36;4.90;99.90
67777;DHT22;54576;52.020;5.536;2023-01-16T06:49:01;4.80;99.90
67777;DHT22;54576;52.020;5.536;2023-01-16T06:51:27;4.90;99.90
67777;DHT22;54576;52.020;5.536;2023-01-16T06:53:53;4.90;99.90
67777;DHT22;54576;52.020;5.536;2023-01-16T06:56:18;4.90;99.90
67777;DHT22;54576;52.020;5.536;2023-01-16T06:58:47;4.90;99.90
67777;DHT22;54576;52.020;5.536;2023-01-16T07:01:13;4.90;99.90
67777;DHT22;54576;52.020;5.536;2023-01-16T07:03:38;4.90;99.90
67777;DHT22;54576;52.020;5.536;2023-01-16T07:06:07;4.90;99.90
67777;DHT22;54576;52.020;5.536;2023-01-16T07:08:38;4.90;99.90
67777;DHT22;54576;52.020;5.536;2023-01-16T07:11:03;4.90;99.90
67777;DHT22;54576;52.020;5.536;2023-01-16T07:13:29;4.90;99.90
67777;DHT22;54576;52.020;5.536;2023-01-16T07:15:56;4.90;99.90
67777;DHT22;54576;52.020;5.536;2023-01-16T07:18:41;4.80;99.90
67777;DHT22;54576;52.020;5.536;2023-01-16T07:21:28;4.80;99.90
67777;DHT22;54576;52.020;5.536;2023-01-16T07:24:16;4.80;99.90
67777;DHT22;54576;52.020;5.536;2023-01-16T07:26:45;4.80;99.90
67777;DHT22;54576;52.020;5.536;2023-01-16T07:29:12;4.80;99.90
67777;DHT22;54576;52.020;5.536;2023-01-16T07:31:38;4.80;99.90
67777;DHT22;54576;52.020;5.536;2023-01-16T07:34:04;4.90;99.90
67777;DHT22;54576;52.020;5.536;2023-01-16T07:36:30;4.90;99.90
67777;DHT22;54576;52.020;5.536;2023-01-16T07:38:55;4.90;99.90
67777;DHT22;54576;52.020;5.536;2023-01-16T07:41:21;4.90;99.90
67777;DHT22;54576;52.020;5.536;2023-01-16T07:43:46;4.90;99.90
67777;DHT22;54576;52.020;5.536;2023-01-16T07:46:12;4.80;99.90
67777;DHT22;54576;52.020;5.536;2023-01-16T07:48:38;4.80;99.90
67777;DHT22;54576;52.020;5.536;2023-01-16T07:51:03;4.80;99.90
67777;DHT22;54576;52.020;5.536;2023-01-16T07:53:30;4.80;99.90
67777;DHT22;54576;52.020;5.536;2023-01-16T07:55:58;4.80;99.90
67777;DHT22;54576;52.020;5.536;2023-01-16T07:58:25;4.80;99.90
67777;DHT22;54576;52.020;5.536;2023-01-16T08:00:54;4.80;99.90
67777;DHT22;54576;52.020;5.536;2023-01-16T08:03:20;4.80;99.90
67777;DHT22;54576;52.020;5.536;2023-01-16T08:05:46;4.80;99.90
67777;DHT22;54576;52.020;5.536;2023-01-16T08:08:12;4.80;99.90
67777;DHT22;54576;52.020;5.536;2023-01-16T08:10:38;4.80;99.90
67777;DHT22;54576;52.020;5.536;2023-01-16T08:13:04;4.80;99.90
67777;DHT22;54576;52.020;5.536;2023-01-16T08:15:30;4.80;99.90
67777;DHT22;54576;52.020;5.536;2023-01-16T08:17:55;4.90;99.90
67777;DHT22;54576;52.020;5.536;2023-01-16T08:20:21;4.90;99.90
67777;DHT22;54576;52.020;5.536;2023-01-16T08:22:49;4.90;99.90
67777;DHT22;54576;52.020;5.536;2023-01-16T08:25:19;4.90;99.90
67777;DHT22;54576;52.020;5.536;2023-01-16T08:27:46;4.90;99.90
67777;DHT22;54576;52.020;5.536;2023-01-16T08:30:13;4.90;99.90
67777;DHT22;54576;52.020;5.536;2023-01-16T08:32:39;4.90;99.90
67777;DHT22;54576;52.020;5.536;2023-01-16T08:35:05;4.90;99.90
67777;DHT22;54576;52.020;5.536;2023-01-16T08:37:31;5.00;99.90
67777;DHT22;54576;52.020;5.536;2023-01-16T08:39:57;4.90;99.90
67777;DHT22;54576;52.020;5.536;2023-01-16T08:42:23;4.90;99.90
67777;DHT22;54576;52.020;5.536;2023-01-16T08:45:11;4.90;99.90
67777;DHT22;54576;52.020;5.536;2023-01-16T08:47:57;5.00;99.90
67777;DHT22;54576;52.020;5.536;2023-01-16T08:50:42;4.90;99.90
67777;DHT22;54576;52.020;5.536;2023-01-16T08:53:27;5.00;99.90
67777;DHT22;54576;52.020;5.536;2023-01-16T08:55:52;5.00;99.90
67777;DHT22;54576;52.020;5.536;2023-01-16T08:58:18;5.00;99.90
67777;DHT22;54576;52.020;5.536;2023-01-16T09:00:46;5.00;99.90
67777;DHT22;54576;52.020;5.536;2023-01-16T09:03:12;5.00;99.90
67777;DHT22;54576;52.020;5.536;2023-01-16T09:05:38;5.00;99.90
67777;DHT22;54576;52.020;5.536;2023-01-16T09:08:03;5.10;99.90
67777;DHT22;54576;52.020;5.536;2023-01-16T09:10:31;5.10;99.90
67777;DHT22;54576;52.020;5.536;2023-01-16T09:12:57;5.10;99.90
67777;DHT22;54576;52.020;5.536;2023-01-16T09:15:41;5.10;99.90
67777;DHT22;54576;52.020;5.536;2023-01-16T09:18:07;5.10;99.90
67777;DHT22;54576;52.020;5.536;2023-01-16T09:20:33;5.10;99.90
67777;DHT22;54576;52.020;5.536;2023-01-16T09:23:00;5.20;99.90
67777;DHT22;54576;52.020;5.536;2023-01-16T09:25:26;5.20;99.90
67777;DHT22;54576;52.020;5.536;2023-01-16T09:27:51;5.20;99.90
67777;DHT22;54576;52.020;5.536;2023-01-16T09:30:17;5.20;99.90
67777;DHT22;54576;52.020;5.536;2023-01-16T09:32:44;5.20;99.90
67777;DHT22;54576;52.020;5.536;2023-01-16T09:35:10;5.20;99.90
67777;DHT22;54576;52.020;5.536;2023-01-16T09:37:36;5.20;99.90
67777;DHT22;54576;52.020;5.536;2023-01-16T09:40:05;5.20;99.90
67777;DHT22;54576;52.020;5.536;2023-01-16T09:45:25;5.30;99.90
67777;DHT22;54576;52.020;5.536;2023-01-16T09:47:58;5.30;99.90
67777;DHT22;54576;52.020;5.536;2023-01-16T09:50:29;5.30;99.90
67777;DHT22;54576;52.020;5.536;2023-01-16T09:52:57;5.30;99.90
67777;DHT22;54576;52.020;5.536;2023-01-16T09:55:45;5.30;99.90
67777;DHT22;54576;52.020;5.536;2023-01-16T09:58:30;5.30;99.90
67777;DHT22;54576;52.020;5.536;2023-01-16T10:01:07;5.30;99.90
67777;DHT22;54576;52.020;5.536;2023-01-16T10:03:33;5.40;99.90
67777;DHT22;54576;52.020;5.536;2023-01-16T10:18:30;5.50;99.90
67777;DHT22;54576;52.020;5.536;2023-01-16T10:23:32;5.40;99.90
67777;DHT22;54576;52.020;5.536;2023-01-16T10:26:22;5.40;99.90
67777;DHT22;54576;52.020;5.536;2023-01-16T10:28:57;5.40;99.90
67777;DHT22;54576;52.020;5.536;2023-01-16T10:31:28;5.30;99.90
67777;DHT22;54576;52.020;5.536;2023-01-16T10:34:21;5.30;99.90
67777;DHT22;54576;52.020;5.536;2023-01-16T10:36:53;5.30;99.90
67777;DHT22;54576;52.020;5.536;2023-01-16T10:39:20;5.20;99.90
67777;DHT22;54576;52.020;5.536;2023-01-16T10:41:48;5.20;99.90
67777;DHT22;54576;52.020;5.536;2023-01-16T10:45:19;5.20;99.90
67777;DHT22;54576;52.020;5.536;2023-01-16T10:48:09;5.20;99.90
67777;DHT22;54576;52.020;5.536;2023-01-16T10:50:57;5.20;99.90
67777;DHT22;54576;52.020;5.536;2023-01-16T10:53:23;5.20;99.90
67777;DHT22;54576;52.020;5.536;2023-01-16T10:55:51;5.20;99.90
67777;DHT22;54576;52.020;5.536;2023-01-16T10:58:47;5.30;99.90
67777;DHT22;54576;52.020;5.536;2023-01-16T11:01:19;5.30;99.90
67777;DHT22;54576;52.020;5.536;2023-01-16T11:03:46;5.30;99.90
67777;DHT22;54576;52.020;5.536;2023-01-16T11:06:18;5.30;99.90
67777;DHT22;54576;52.020;5.536;2023-01-16T11:08:47;5.30;99.90
67777;DHT22;54576;52.020;5.536;2023-01-16T11:11:14;5.30;99.90
67777;DHT22;54576;52.020;5.536;2023-01-16T11:14:00;5.40;99.90
67777;DHT22;54576;52.020;5.536;2023-01-16T11:16:44;5.40;99.90
67777;DHT22;54576;52.020;5.536;2023-01-16T11:19:28;5.40;99.90
67777;DHT22;54576;52.020;5.536;2023-01-16T11:22:22;5.40;99.90
67777;DHT22;54576;52.020;5.536;2023-01-16T11:24:53;5.40;99.90
67777;DHT22;54576;52.020;5.536;2023-01-16T11:27:20;5.50;99.90
67777;DHT22;54576;52.020;5.536;2023-01-16T11:29:53;5.70;99.90
67777;DHT22;54576;52.020;5.536;2023-01-16T11:32:20;5.90;99.90
67777;DHT22;54576;52.020;5.536;2023-01-16T11:34:55;6.10;99.90
67777;DHT22;54576;52.020;5.536;2023-01-16T11:37:22;6.30;99.90
67777;DHT22;54576;52.020;5.536;2023-01-16T11:39:50;6.40;99.90
67777;DHT22;54576;52.020;5.536;2023-01-16T11:42:17;6.50;99.90
67777;DHT22;54576;52.020;5.536;2023-01-16T11:45:17;6.50;99.90
67777;DHT22;54576;52.020;5.536;2023-01-16T11:48:05;6.60;99.90
67777;DHT22;54576;52.020;5.536;2023-01-16T11:50:51;6.50;99.90
67777;DHT22;54576;52.020;5.536;2023-01-16T11:53:17;6.50;99.90
67777;DHT22;54576;52.020;5.536;2023-01-16T11:58:39;6.40;99.90
67777;DHT22;54576;52.020;5.536;2023-01-16T12:01:37;6.30;99.90
67777;DHT22;54576;52.020;5.536;2023-01-16T12:04:25;6.30;99.90
67777;DHT22;54576;52.020;5.536;2023-01-16T12:10:05;6.30;99.90
67777;DHT22;54576;52.020;5.536;2023-01-16T12:12:47;6.20;99.90
67777;DHT22;54576;52.020;5.536;2023-01-16T12:19:23;6.20;99.90
67777;DHT22;54576;52.020;5.536;2023-01-16T12:22:17;6.20;99.90
67777;DHT22;54576;52.020;5.536;2023-01-16T12:27:33;6.30;99.90
67777;DHT22;54576;52.020;5.536;2023-01-16T12:32:59;6.30;99.90
67777;DHT22;54576;52.020;5.536;2023-01-16T12:35:57;6.30;99.90
67777;DHT22;54576;52.020;5.536;2023-01-16T12:38:33;6.30;99.90
67777;DHT22;54576;52.020;5.536;2023-01-16T12:41:21;6.30;99.90
67777;DHT22;54576;52.020;5.536;2023-01-16T12:44:10;6.30;99.90
67777;DHT22;54576;52.020;5.536;2023-01-16T12:52:00;6.20;99.90
67777;DHT22;54576;52.020;5.536;2023-01-16T12:54:37;6.20;99.90
67777;DHT22;54576;52.020;5.536;2023-01-16T12:57:18;6.20;99.90
67777;DHT22;54576;52.020;5.536;2023-01-16T13:00:13;6.20;99.90
67777;DHT22;54576;52.020;5.536;2023-01-16T13:02:41;6.20;99.90
67777;DHT22;54576;52.020;5.536;2023-01-16T13:05:18;6.20;99.90
67777;DHT22;54576;52.020;5.536;2023-01-16T13:08:04;6.20;99.90
67777;DHT22;54576;52.020;5.536;2023-01-16T13:10:41;6.20;99.90
67777;DHT22;54576;52.020;5.536;2023-01-16T13:13:33;6.20;99.90
67777;DHT22;54576;52.020;5.536;2023-01-16T13:19:05;6.30;99.90
67777;DHT22;54576;52.020;5.536;2023-01-16T13:21:45;6.30;99.90
67777;DHT22;54576;52.020;5.536;2023-01-16T13:24:19;6.30;99.90
67777;DHT22;54576;52.020;5.536;2023-01-16T13:26:56;6.30;99.90
67777;DHT22;54576;52.020;5.536;2023-01-16T13:29:42;6.20;99.90
67777;DHT22;54576;52.020;5.536;2023-01-16T13:32:29;6.30;99.90
67777;DHT22;54576;52.020;5.536;2023-01-16T13:35:05;6.30;99.90
67777;DHT22;54576;52.020;5.536;2023-01-16T13:40:27;6.20;99.90
67777;DHT22;54576;52.020;5.536;2023-01-16T13:43:06;6.20;99.90
67777;DHT22;54576;52.020;5.536;2023-01-16T13:45:53;6.20;99.90
67777;DHT22;54576;52.020;5.536;2023-01-16T13:48:30;6.20;99.90
67777;DHT22;54576;52.020;5.536;2023-01-16T13:51:06;6.20;99.90
67777;DHT22;54576;52.020;5.536;2023-01-16T13:53:35;6.30;99.90
67777;DHT22;54576;52.020;5.536;2023-01-16T13:56:13;6.30;99.90
67777;DHT22;54576;52.020;5.536;2023-01-16T13:58:42;6.30;99.90
67777;DHT22;54576;52.020;5.536;2023-01-16T14:01:33;6.30;99.90
67777;DHT22;54576;52.020;5.536;2023-01-16T14:09:21;6.20;99.90
67777;DHT22;54576;52.020;5.536;2023-01-16T14:23:24;6.20;99.90
67777;DHT22;54576;52.020;5.536;2023-01-16T14:26:23;6.20;99.90
67777;DHT22;54576;52.020;5.536;2023-01-16T14:29:00;6.20;99.90
67777;DHT22;54576;52.020;5.536;2023-01-16T14:31:40;6.10;99.90
67777;DHT22;54576;52.020;5.536;2023-01-16T14:34:16;6.10;99.90
67777;DHT22;54576;52.020;5.536;2023-01-16T14:36:42;6.10;99.90
67777;DHT22;54576;52.020;5.536;2023-01-16T14:39:31;6.10;99.90
67777;DHT22;54576;52.020;5.536;2023-01-16T14:42:11;6.10;99.90
67777;DHT22;54576;52.020;5.536;2023-01-16T14:45:21;6.10;99.90
67777;DHT22;54576;52.020;5.536;2023-01-16T14:50:58;6.00;99.90
67777;DHT22;54576;52.020;5.536;2023-01-16T14:53:48;6.10;99.90
67777;DHT22;54576;52.020;5.536;2023-01-16T14:56:35;6.10;99.90
67777;DHT22;54576;52.020;5.536;2023-01-16T14:59:20;6.00;99.90
67777;DHT22;54576;52.020;5.536;2023-01-16T15:01:50;6.00;99.90
67777;DHT22;54576;52.020;5.536;2023-01-16T15:04:41;5.90;99.90
67777;DHT22;54576;52.020;5.536;2023-01-16T15:07:16;6.00;99.90
67777;DHT22;54576;52.020;5.536;2023-01-16T15:09:43;6.00;99.90
67777;DHT22;54576;52.020;5.536;2023-01-16T15:12:39;6.00;99.90
67777;DHT22;54576;52.020;5.536;2023-01-16T15:17:44;5.90;99.90
67777;DHT22;54576;52.020;5.536;2023-01-16T15:20:29;5.90;99.90
67777;DHT22;54576;52.020;5.536;2023-01-16T15:23:30;5.90;99.90
67777;DHT22;54576;52.020;5.536;2023-01-16T15:29:24;6.00;99.90
67777;DHT22;54576;52.020;5.536;2023-01-16T15:32:04;6.00;99.90
67777;DHT22;54576;52.020;5.536;2023-01-16T15:34:35;6.00;99.90
67777;DHT22;54576;52.020;5.536;2023-01-16T15:37:05;5.90;99.90
67777;DHT22;54576;52.020;5.536;2023-01-16T15:39:40;6.00;99.90
67777;DHT22;54576;52.020;5.536;2023-01-16T15:42:26;5.90;99.90
67777;DHT22;54576;52.020;5.536;2023-01-16T15:45:21;5.90;99.90
67777;DHT22;54576;52.020;5.536;2023-01-16T15:50:55;5.90;99.90
67777;DHT22;54576;52.020;5.536;2023-01-16T15:53:25;5.90;99.90
67777;DHT22;54576;52.020;5.536;2023-01-16T15:56:02;5.90;99.90
67777;DHT22;54576;52.020;5.536;2023-01-16T15:58:28;5.90;99.90
67777;DHT22;54576;52.020;5.536;2023-01-16T16:00:55;5.90;99.90
67777;DHT22;54576;52.020;5.536;2023-01-16T16:03:24;6.00;99.90
67777;DHT22;54576;52.020;5.536;2023-01-16T16:05:55;6.00;99.90
67777;DHT22;54576;52.020;5.536;2023-01-16T16:08:25;6.00;99.90
67777;DHT22;54576;52.020;5.536;2023-01-16T16:10:52;6.00;99.90
67777;DHT22;54576;52.020;5.536;2023-01-16T16:13:40;5.90;99.90
67777;DHT22;54576;52.020;5.536;2023-01-16T16:16:20;6.00;99.90
67777;DHT22;54576;52.020;5.536;2023-01-16T16:19:07;6.00;99.90
67777;DHT22;54576;52.020;5.536;2023-01-16T16:21:44;6.00;99.90
67777;DHT22;54576;52.020;5.536;2023-01-16T16:24:33;6.00;99.90
67777;DHT22;54576;52.020;5.536;2023-01-16T16:27:06;6.00;99.90
67777;DHT22;54576;52.020;5.536;2023-01-16T16:29:34;6.10;99.90
67777;DHT22;54576;52.020;5.536;2023-01-16T16:32:03;6.10;99.90
67777;DHT22;54576;52.020;5.536;2023-01-16T16:34:30;6.10;99.90
67777;DHT22;54576;52.020;5.536;2023-01-16T16:36:59;6.10;99.90
67777;DHT22;54576;52.020;5.536;2023-01-16T16:45:19;6.10;99.90
67777;DHT22;54576;52.020;5.536;2023-01-16T16:48:13;6.10;99.90
67777;DHT22;54576;52.020;5.536;2023-01-16T16:50:36;6.10;99.90
67777;DHT22;54576;52.020;5.536;2023-01-16T16:55:40;6.20;99.90
67777;DHT22;54576;52.020;5.536;2023-01-16T16:58:27;6.20;99.90
67777;DHT22;54576;52.020;5.536;2023-01-16T17:00:53;6.10;99.90
67777;DHT22;54576;52.020;5.536;2023-01-16T17:03:24;6.10;99.90
67777;DHT22;54576;52.020;5.536;2023-01-16T17:05:51;6.10;99.90
67777;DHT22;54576;52.020;5.536;2023-01-16T17:08:26;6.10;99.90
67777;DHT22;54576;52.020;5.536;2023-01-16T17:10:55;6.10;99.90
67777;DHT22;54576;52.020;5.536;2023-01-16T17:13:22;6.10;99.90
67777;DHT22;54576;52.020;5.536;2023-01-16T17:15:50;6.10;99.90
67777;DHT22;54576;52.020;5.536;2023-01-16T17:18:22;6.10;99.90
67777;DHT22;54576;52.020;5.536;2023-01-16T17:20:48;6.10;99.90
67777;DHT22;54576;52.020;5.536;2023-01-16T17:23:16;6.00;99.90
67777;DHT22;54576;52.020;5.536;2023-01-16T17:25:44;6.00;99.90
67777;DHT22;54576;52.020;5.536;2023-01-16T17:28:11;6.00;99.90
67777;DHT22;54576;52.020;5.536;2023-01-16T17:30:39;6.10;99.90
67777;DHT22;54576;52.020;5.536;2023-01-16T17:33:11;6.10;99.90
67777;DHT22;54576;52.020;5.536;2023-01-16T17:35:38;6.10;99.90
67777;DHT22;54576;52.020;5.536;2023-01-16T17:38:10;6.10;99.90
67777;DHT22;54576;52.020;5.536;2023-01-16T17:40:36;6.10;99.90
67777;DHT22;54576;52.020;5.536;2023-01-16T17:43:03;6.10;99.90
67777;DHT22;54576;52.020;5.536;2023-01-16T17:45:54;6.00;99.90
67777;DHT22;54576;52.020;5.536;2023-01-16T17:48:29;5.90;99.90
67777;DHT22;54576;52.020;5.536;2023-01-16T17:50:56;5.90;99.90
67777;DHT22;54576;52.020;5.536;2023-01-16T17:53:27;5.80;99.90
67777;DHT22;54576;52.020;5.536;2023-01-16T17:56:15;5.70;99.90
67777;DHT22;54576;52.020;5.536;2023-01-16T17:58:44;5.70;99.90
67777;DHT22;54576;52.020;5.536;2023-01-16T18:01:18;5.60;99.90
67777;DHT22;54576;52.020;5.536;2023-01-16T18:03:55;5.50;99.90
67777;DHT22;54576;52.020;5.536;2023-01-16T18:06:37;5.50;99.90
67777;DHT22;54576;52.020;5.536;2023-01-16T18:09:09;5.30;99.90
67777;DHT22;54576;52.020;5.536;2023-01-16T18:11:40;5.20;99.90
67777;DHT22;54576;52.020;5.536;2023-01-16T18:14:25;5.20;99.90
67777;DHT22;54576;52.020;5.536;2023-01-16T18:17:11;5.10;99.90
67777;DHT22;54576;52.020;5.536;2023-01-16T18:19:56;5.10;99.90
67777;DHT22;54576;52.020;5.536;2023-01-16T18:22:23;5.10;99.90